createdAt,value
2023-05-16T00:00:06.770Z,1917.00
2023-05-16T00:01:06.823Z,1925.00
2023-05-16T00:02:06.797Z,1922.00
2023-05-16T00:03:06.872Z,1900.00
2023-05-16T00:04:06.899Z,1904.00
2023-05-16T00:05:07.052Z,1917.00
2023-05-16T00:06:06.796Z,1894.00
2023-05-16T00:07:06.781Z,1884.00
2023-05-16T00:08:06.805Z,1885.00
2023-05-16T00:09:06.822Z,1902.00
2023-05-16T00:10:06.823Z,1888.00
2023-05-16T00:11:06.839Z,1877.00
2023-05-16T00:12:06.820Z,1877.00
2023-05-16T00:13:06.866Z,1899.00
2023-05-16T00:14:06.846Z,1887.00
2023-05-16T00:15:07.006Z,1886.00
2023-05-16T00:16:07.001Z,1884.00
2023-05-16T00:17:07.099Z,1871.00
2023-05-16T00:18:06.987Z,1862.00
2023-05-16T00:19:06.939Z,1857.00
2023-05-16T00:20:06.888Z,1874.00
2023-05-16T00:21:06.918Z,1871.00
2023-05-16T00:22:06.956Z,1862.00
2023-05-16T00:23:06.916Z,1855.00
2023-05-16T00:24:06.943Z,1856.00
2023-05-16T00:25:06.937Z,1867.00
2023-05-16T00:26:06.941Z,1857.00
2023-05-16T00:27:07.118Z,1836.00
2023-05-16T00:28:06.925Z,1848.00
2023-05-16T00:29:06.941Z,1829.00
2023-05-16T00:30:06.956Z,1835.00
2023-05-16T00:31:06.959Z,1832.00
2023-05-16T00:32:07.022Z,1848.00
2023-05-16T00:33:07.023Z,1829.00
2023-05-16T00:34:06.999Z,1826.00
2023-05-16T00:35:06.969Z,1840.00
2023-05-16T00:36:06.985Z,1818.00
2023-05-16T00:37:07.001Z,1841.00
2023-05-16T00:38:07.011Z,1831.00
2023-05-16T00:39:07.013Z,1816.00
2023-05-16T00:40:07.055Z,1800.00
2023-05-16T00:41:07.028Z,1814.00
2023-05-16T00:42:07.028Z,1803.00
2023-05-16T00:43:07.036Z,1823.00
2023-05-16T00:44:07.068Z,1825.00
2023-05-16T00:45:07.061Z,1811.00
2023-05-16T00:46:07.091Z,1810.00
2023-05-16T00:47:07.071Z,1804.00
2023-05-16T00:48:07.113Z,1806.00
2023-05-16T00:49:07.091Z,1793.00
2023-05-16T00:50:07.513Z,1799.00
2023-05-16T00:51:07.093Z,1804.00
2023-05-16T00:52:07.095Z,1811.00
2023-05-16T00:53:07.108Z,1783.00
2023-05-16T00:54:07.108Z,1800.00
2023-05-16T00:55:07.536Z,1800.00
2023-05-16T00:56:07.120Z,1802.00
2023-05-16T00:57:07.133Z,1798.00
2023-05-16T00:58:07.156Z,1796.00
2023-05-16T00:59:07.174Z,1791.00
2023-05-16T01:00:07.197Z,1789.00
2023-05-16T01:01:07.252Z,1795.00
2023-05-16T01:02:07.206Z,1797.00
2023-05-16T01:03:07.318Z,1799.00
2023-05-16T01:04:07.320Z,1801.00
2023-05-16T01:05:07.238Z,1795.00
2023-05-16T01:06:07.259Z,1791.00
2023-05-16T01:07:07.195Z,1783.00
2023-05-16T01:08:07.211Z,1785.00
2023-05-16T01:09:07.210Z,1782.00
2023-05-16T01:10:07.296Z,1787.00
2023-05-16T01:11:08.056Z,1788.00
2023-05-16T01:12:07.237Z,1779.00
2023-05-16T01:13:07.202Z,1766.00
2023-05-16T01:14:07.247Z,1775.00
2023-05-16T01:15:07.257Z,1767.00
2023-05-16T01:16:07.600Z,1772.00
2023-05-16T01:17:07.284Z,1776.00
2023-05-16T01:18:07.331Z,1767.00
2023-05-16T01:19:07.334Z,1760.00
2023-05-16T01:20:07.312Z,1757.00
2023-05-16T01:21:07.300Z,1757.00
2023-05-16T01:22:07.312Z,1771.00
2023-05-16T01:23:07.262Z,1770.00
2023-05-16T01:24:07.261Z,1764.00
2023-05-16T01:25:07.284Z,1771.00
2023-05-16T01:26:07.541Z,1752.00
2023-05-16T01:27:07.286Z,1754.00
2023-05-16T01:28:07.294Z,1766.00
2023-05-16T01:29:07.386Z,1757.00
2023-05-16T01:30:07.303Z,1752.00
2023-05-16T01:31:07.349Z,1747.00
2023-05-16T01:32:07.499Z,1752.00
2023-05-16T01:33:07.362Z,1744.00
2023-05-16T01:34:07.348Z,1743.00
2023-05-16T01:35:07.358Z,1725.00
2023-05-16T01:36:07.559Z,1741.00
2023-05-16T01:37:07.339Z,1739.00
2023-05-16T01:38:07.317Z,1740.00
2023-05-16T01:39:07.333Z,1729.00
2023-05-16T01:40:07.331Z,1728.00
2023-05-16T01:41:07.592Z,1730.00
2023-05-16T01:42:07.310Z,1734.00
2023-05-16T01:43:07.311Z,1730.00
2023-05-16T01:44:07.356Z,1731.00
2023-05-16T01:45:07.372Z,1729.00
2023-05-16T01:46:07.580Z,1725.00
2023-05-16T01:47:07.489Z,1708.00
2023-05-16T01:48:07.473Z,1727.00
2023-05-16T01:49:07.351Z,1718.00
2023-05-16T01:50:07.383Z,1714.00
2023-05-16T01:51:07.559Z,1717.00
2023-05-16T01:52:07.360Z,1717.00
2023-05-16T01:53:07.378Z,1704.00
2023-05-16T01:54:07.375Z,1704.00
2023-05-16T01:55:07.372Z,1709.00
2023-05-16T01:56:07.612Z,1699.00
2023-05-16T01:57:07.366Z,1699.00
2023-05-16T01:58:07.344Z,1703.00
2023-05-16T01:59:07.356Z,1712.00
2023-05-16T02:00:07.348Z,1698.00
2023-05-16T02:01:07.485Z,1696.00
2023-05-16T02:02:07.349Z,1693.00
2023-05-16T02:03:07.425Z,1692.00
2023-05-16T02:04:07.386Z,1685.00
2023-05-16T02:05:07.349Z,1696.00
2023-05-16T02:06:07.562Z,1687.00
2023-05-16T02:07:07.372Z,1700.00
2023-05-16T02:08:07.373Z,1687.00
2023-05-16T02:09:07.374Z,1687.00
2023-05-16T02:10:07.399Z,1685.00
2023-05-16T02:11:07.405Z,1684.00
2023-05-16T02:12:07.377Z,1682.00
2023-05-16T02:13:07.398Z,1690.00
2023-05-16T02:14:07.395Z,1690.00
2023-05-16T02:15:07.420Z,1686.00
2023-05-16T02:16:07.680Z,1690.00
2023-05-16T02:17:07.419Z,1703.00
2023-05-16T02:18:07.409Z,1680.00
2023-05-16T02:19:07.451Z,1672.00
2023-05-16T02:20:07.399Z,1678.00
2023-05-16T02:21:07.562Z,1675.00
2023-05-16T02:22:07.488Z,1682.00
2023-05-16T02:23:07.502Z,1680.00
2023-05-16T02:24:07.527Z,1669.00
2023-05-16T02:25:07.449Z,1659.00
2023-05-16T02:26:07.496Z,1674.00
2023-05-16T02:27:07.502Z,1667.00
2023-05-16T02:28:07.471Z,1671.00
2023-05-16T02:29:07.524Z,1658.00
2023-05-16T02:30:07.507Z,1664.00
2023-05-16T02:31:07.572Z,1660.00
2023-05-16T02:32:07.483Z,1655.00
2023-05-16T02:33:07.634Z,1654.00
2023-05-16T02:34:07.524Z,1647.00
2023-05-16T02:35:07.529Z,1662.00
2023-05-16T02:36:07.553Z,1654.00
2023-05-16T02:37:07.552Z,1646.00
2023-05-16T02:38:07.527Z,1649.00
2023-05-16T02:39:07.583Z,1660.00
2023-05-16T02:40:07.580Z,1652.00
2023-05-16T02:41:08.052Z,1646.00
2023-05-16T02:42:07.594Z,1649.00
2023-05-16T02:43:07.574Z,1632.00
2023-05-16T02:44:07.567Z,1657.00
2023-05-16T02:45:07.622Z,1647.00
2023-05-16T02:46:07.656Z,1646.00
2023-05-16T02:47:07.588Z,1640.00
2023-05-16T02:48:07.645Z,1633.00
2023-05-16T02:49:07.606Z,1640.00
2023-05-16T02:50:07.662Z,1632.00
2023-05-16T02:51:08.078Z,1641.00
2023-05-16T02:52:07.612Z,1633.00
2023-05-16T02:53:07.632Z,1627.00
2023-05-16T02:54:07.635Z,1632.00
2023-05-16T02:56:08.084Z,1642.00
2023-05-16T02:57:07.642Z,1640.00
2023-05-16T02:58:07.611Z,1626.00
2023-05-16T02:59:07.722Z,1629.00
2023-05-16T03:00:07.611Z,1629.00
2023-05-16T03:01:08.155Z,1633.00
2023-05-16T03:02:07.816Z,1634.00
2023-05-16T03:03:07.667Z,1628.00
2023-05-16T03:04:07.659Z,1624.00
2023-05-16T03:05:07.552Z,1633.00
2023-05-16T03:06:07.580Z,1614.00
2023-05-16T03:07:07.574Z,1622.00
2023-05-16T03:08:07.542Z,1638.00
2023-05-16T03:09:07.533Z,1617.00
2023-05-16T03:10:07.563Z,1622.00
2023-05-16T03:11:07.592Z,1627.00
2023-05-16T03:12:07.525Z,1608.00
2023-05-16T03:13:07.505Z,1611.00
2023-05-16T03:14:07.520Z,1611.00
2023-05-16T03:15:07.503Z,1609.00
2023-05-16T03:16:07.590Z,1601.00
2023-05-16T03:17:07.506Z,1613.00
2023-05-16T03:18:07.520Z,1611.00
2023-05-16T03:19:07.592Z,1613.00
2023-05-16T03:20:07.465Z,1605.00
2023-05-16T03:21:07.560Z,1605.00
2023-05-16T03:22:07.461Z,1598.00
2023-05-16T03:23:07.465Z,1608.00
2023-05-16T03:24:07.543Z,1609.00
2023-05-16T03:25:07.411Z,1598.00
2023-05-16T03:26:07.639Z,1614.00
2023-05-16T03:27:07.487Z,1597.00
2023-05-16T03:28:07.413Z,1594.00
2023-05-16T03:29:07.411Z,1593.00
2023-05-16T03:30:07.438Z,1587.00
2023-05-16T03:31:07.465Z,1599.00
2023-05-16T03:32:07.545Z,1598.00
2023-05-16T03:33:07.454Z,1588.00
2023-05-16T03:34:07.373Z,1589.00
2023-05-16T03:35:07.384Z,1595.00
2023-05-16T03:36:07.591Z,1592.00
2023-05-16T03:37:07.385Z,1597.00
2023-05-16T03:38:07.358Z,1594.00
2023-05-16T03:39:07.381Z,1591.00
2023-05-16T03:40:07.327Z,1600.00
2023-05-16T03:41:07.591Z,1589.00
2023-05-16T03:42:07.377Z,1600.00
2023-05-16T03:43:07.324Z,1574.00
2023-05-16T03:44:07.331Z,1590.00
2023-05-16T03:45:07.317Z,1584.00
2023-05-16T03:46:07.652Z,1576.00
2023-05-16T03:47:07.316Z,1581.00
2023-05-16T03:48:07.345Z,1576.00
2023-05-16T03:49:07.328Z,1576.00
2023-05-16T03:50:07.263Z,1588.00
2023-05-16T03:51:07.591Z,1581.00
2023-05-16T03:52:07.266Z,1577.00
2023-05-16T03:53:07.273Z,1567.00
2023-05-16T03:54:07.230Z,1579.00
2023-05-16T03:55:07.214Z,1576.00
2023-05-16T03:56:07.244Z,1571.00
2023-05-16T03:57:07.204Z,1580.00
2023-05-16T03:58:07.202Z,1574.00
2023-05-16T03:59:07.213Z,1574.00
2023-05-16T04:00:07.188Z,1574.00
2023-05-16T04:01:07.619Z,1573.00
2023-05-16T04:02:07.250Z,1561.00
2023-05-16T04:03:07.186Z,1569.00
2023-05-16T04:04:07.160Z,1581.00
2023-05-16T04:05:07.167Z,1565.00
2023-05-16T04:06:07.255Z,1575.00
2023-05-16T04:07:07.161Z,1583.00
2023-05-16T04:08:07.149Z,1565.00
2023-05-16T04:09:07.117Z,1561.00
2023-05-16T04:10:07.155Z,1569.00
2023-05-16T04:11:07.130Z,1568.00
2023-05-16T04:12:07.110Z,1558.00
2023-05-16T04:13:07.133Z,1573.00
2023-05-16T04:14:07.260Z,1559.00
2023-05-16T04:15:07.082Z,1558.00
2023-05-16T04:16:07.107Z,1558.00
2023-05-16T04:17:07.264Z,1553.00
2023-05-16T04:18:07.118Z,1554.00
2023-05-16T04:19:07.117Z,1559.00
2023-05-16T04:20:07.064Z,1546.00
2023-05-16T04:21:07.054Z,1565.00
2023-05-16T04:22:07.044Z,1545.00
2023-05-16T04:23:07.022Z,1542.00
2023-05-16T04:24:07.014Z,1549.00
2023-05-16T04:25:07.030Z,1555.00
2023-05-16T04:26:07.111Z,1548.00
2023-05-16T04:27:07.010Z,1541.00
2023-05-16T04:28:06.980Z,1537.00
2023-05-16T04:29:06.994Z,1539.00
2023-05-16T04:30:07.000Z,1535.00
2023-05-16T04:31:07.122Z,1536.00
2023-05-16T04:32:06.978Z,1523.00
2023-05-16T04:33:07.027Z,1534.00
2023-05-16T04:34:06.956Z,1539.00
2023-05-16T04:35:06.966Z,1532.00
2023-05-16T04:36:07.101Z,1527.00
2023-05-16T04:37:06.948Z,1532.00
2023-05-16T04:38:06.949Z,1538.00
2023-05-16T04:39:06.954Z,1527.00
2023-05-16T04:40:06.976Z,1528.00
2023-05-16T04:41:06.908Z,1524.00
2023-05-16T04:42:06.907Z,1518.00
2023-05-16T04:43:06.936Z,1514.00
2023-05-16T04:44:06.890Z,1525.00
2023-05-16T04:45:06.912Z,1529.00
2023-05-16T04:46:06.923Z,1519.00
2023-05-16T04:47:06.931Z,1521.00
2023-05-16T04:48:06.893Z,1517.00
2023-05-16T04:49:06.866Z,1520.00
2023-05-16T04:50:06.879Z,1500.00
2023-05-16T04:51:06.833Z,1514.00
2023-05-16T04:52:06.843Z,1515.00
2023-05-16T04:53:06.858Z,1509.00
2023-05-16T04:54:06.860Z,1508.00
2023-05-16T04:55:06.914Z,1492.00
2023-05-16T04:56:07.181Z,1488.00
2023-05-16T04:57:06.901Z,1485.00
2023-05-16T04:58:06.983Z,1471.00
2023-05-16T04:59:06.996Z,1468.00
2023-05-16T05:00:07.024Z,1459.00
2023-05-16T05:01:07.105Z,1447.00
2023-05-16T05:02:07.296Z,1421.00
2023-05-16T05:03:07.165Z,1401.00
2023-05-16T05:04:07.200Z,1426.00
2023-05-16T05:05:07.329Z,1540.00
2023-05-16T05:06:07.288Z,1480.00
2023-05-16T05:07:07.359Z,1413.00
2023-05-16T05:08:07.360Z,1418.00
2023-05-16T05:09:07.472Z,1420.00
2023-05-16T05:10:07.484Z,1399.00
2023-05-16T05:11:07.511Z,1411.00
2023-05-16T05:12:07.591Z,1405.00
2023-05-16T05:13:07.638Z,1414.00
2023-05-16T05:14:07.710Z,1520.00
2023-05-16T05:15:07.712Z,1536.00
2023-05-16T05:16:08.131Z,1486.00
2023-05-16T05:17:07.788Z,1579.00
2023-05-16T05:18:07.960Z,1544.00
2023-05-16T05:19:07.859Z,1609.00
2023-05-16T05:20:07.872Z,1702.00
2023-05-16T05:21:08.213Z,1673.00
2023-05-16T05:22:07.954Z,1720.00
2023-05-16T05:23:07.979Z,1735.00
2023-05-16T05:24:07.992Z,1764.00
2023-05-16T05:25:08.040Z,1787.00
2023-05-16T05:26:08.076Z,1802.00
2023-05-16T05:27:08.113Z,1831.00
2023-05-16T05:28:08.103Z,1848.00
2023-05-16T05:29:08.168Z,1865.00
2023-05-16T05:30:08.190Z,1889.00
2023-05-16T05:31:08.350Z,1925.00
2023-05-16T05:32:08.284Z,1911.00
2023-05-16T05:33:08.297Z,1922.00
2023-05-16T05:34:08.285Z,1942.00
2023-05-16T05:35:08.338Z,1929.00
2023-05-16T05:36:08.666Z,1943.00
2023-05-16T05:37:08.373Z,1943.00
2023-05-16T05:38:08.428Z,1905.00
2023-05-16T05:39:08.449Z,1908.00
2023-05-16T05:40:08.510Z,1934.00
2023-05-16T05:41:08.675Z,1906.00
2023-05-16T05:42:08.564Z,1908.00
2023-05-16T05:43:08.618Z,1884.00
2023-05-16T05:44:08.593Z,1874.00
2023-05-16T05:45:08.656Z,1858.00
2023-05-16T05:46:09.247Z,1846.00
2023-05-16T05:47:08.741Z,1876.00
2023-05-16T05:48:08.806Z,1860.00
2023-05-16T05:49:08.886Z,1833.00
2023-05-16T05:50:08.839Z,1803.00
2023-05-16T05:51:08.871Z,1788.00
2023-05-16T05:52:08.833Z,1777.00
2023-05-16T05:53:08.906Z,1770.00
2023-05-16T05:54:08.946Z,1745.00
2023-05-16T05:55:08.955Z,1736.00
2023-05-16T05:56:09.159Z,1728.00
2023-05-16T05:57:10.077Z,1702.00
2023-05-16T05:58:09.053Z,1713.00
2023-05-16T05:59:09.089Z,1694.00
2023-05-16T06:00:09.125Z,1685.00
2023-05-16T06:01:09.664Z,1679.00
2023-05-16T06:02:09.212Z,1663.00
2023-05-16T06:03:09.266Z,1649.00
2023-05-16T06:04:09.240Z,1645.00
2023-05-16T06:05:09.326Z,1641.00
2023-05-16T06:06:09.330Z,1634.00
2023-05-16T06:07:09.391Z,1628.00
2023-05-16T06:08:09.425Z,1625.00
2023-05-16T06:09:09.451Z,1610.00
2023-05-16T06:10:09.462Z,1606.00
2023-05-16T06:11:09.556Z,1595.00
2023-05-16T06:12:09.552Z,1584.00
2023-05-16T06:13:09.587Z,1588.00
2023-05-16T06:14:09.638Z,1599.00
2023-05-16T06:15:09.702Z,1570.00
2023-05-16T06:16:10.181Z,1551.00
2023-05-16T06:17:09.820Z,1545.00
2023-05-16T06:18:09.871Z,1541.00
2023-05-16T06:19:09.874Z,1536.00
2023-05-16T06:20:09.855Z,1521.00
2023-05-16T06:21:10.187Z,1524.00
2023-05-16T06:22:09.923Z,1528.00
2023-05-16T06:23:09.951Z,1513.00
2023-05-16T06:24:09.973Z,1523.00
2023-05-16T06:25:10.034Z,1499.00
2023-05-16T06:26:10.183Z,1505.00
2023-05-16T06:27:10.138Z,1493.00
2023-05-16T06:28:10.167Z,1501.00
2023-05-16T06:29:10.213Z,1492.00
2023-05-16T06:30:10.317Z,1496.00
2023-05-16T06:31:10.323Z,1484.00
2023-05-16T06:32:13.092Z,1485.00
2023-05-16T06:33:10.399Z,1494.00
2023-05-16T06:34:10.348Z,1477.00
2023-05-16T06:35:10.370Z,1473.00
2023-05-16T06:36:10.340Z,1459.00
2023-05-16T06:37:10.303Z,1466.00
2023-05-16T06:38:10.313Z,1460.00
2023-05-16T06:39:10.289Z,1461.00
2023-05-16T06:40:10.275Z,1456.00
2023-05-16T06:41:10.709Z,1445.00
2023-05-16T06:42:10.275Z,1445.00
2023-05-16T06:43:10.300Z,1449.00
2023-05-16T06:44:10.276Z,1429.00
2023-05-16T06:45:10.220Z,1432.00
2023-05-16T06:46:10.300Z,1427.00
2023-05-16T06:47:10.243Z,1420.00
2023-05-16T06:48:10.233Z,1427.00
2023-05-16T06:49:10.216Z,1403.00
2023-05-16T06:50:10.250Z,1406.00
2023-05-16T06:51:10.776Z,1407.00
2023-05-16T06:52:10.425Z,1391.00
2023-05-16T06:53:10.209Z,1398.00
2023-05-16T06:54:10.237Z,1482.00
2023-05-16T06:55:10.258Z,1449.00
2023-05-16T06:56:11.658Z,1442.00
2023-05-16T06:57:10.170Z,1467.00
2023-05-16T06:58:10.189Z,1557.00
2023-05-16T06:59:10.181Z,1540.00
2023-05-16T07:00:10.167Z,1552.00
2023-05-16T07:01:10.218Z,1591.00
2023-05-16T07:02:10.141Z,1610.00
2023-05-16T07:03:10.232Z,1617.00
2023-05-16T07:04:10.178Z,1663.00
2023-05-16T07:05:10.138Z,1689.00
2023-05-16T07:06:10.186Z,1679.00
2023-05-16T07:07:10.125Z,1734.00
2023-05-16T07:08:10.089Z,1788.00
2023-05-16T07:09:10.096Z,1991.00
2023-05-16T07:10:10.085Z,1917.00
2023-05-16T07:11:10.073Z,2037.00
2023-05-16T07:12:10.672Z,2062.00
2023-05-16T07:13:10.087Z,2067.00
2023-05-16T07:14:10.073Z,2090.00
2023-05-16T07:15:10.018Z,2087.00
2023-05-16T07:16:10.194Z,2085.00
2023-05-16T07:17:10.066Z,2096.00
2023-05-16T07:18:10.107Z,2113.00
2023-05-16T07:19:10.090Z,2095.00
2023-05-16T07:20:10.016Z,2241.00
2023-05-16T07:21:10.033Z,2222.00
2023-05-16T07:22:10.005Z,2230.00
2023-05-16T07:23:10.059Z,2229.00
2023-05-16T07:24:09.989Z,2205.00
2023-05-16T07:25:09.994Z,2214.00
2023-05-16T07:26:10.155Z,2229.00
2023-05-16T07:27:10.062Z,2203.00
2023-05-16T07:28:10.047Z,2213.00
2023-05-16T07:29:10.061Z,2229.00
2023-05-16T07:30:10.052Z,2261.00
2023-05-16T07:31:10.054Z,2270.00
2023-05-16T07:32:10.096Z,2284.00
2023-05-16T07:33:10.138Z,2288.00
2023-05-16T07:34:10.056Z,2299.00
2023-05-16T07:35:10.064Z,2278.00
2023-05-16T07:36:16.652Z,2279.00
2023-05-16T07:37:11.021Z,2280.00
2023-05-16T07:38:10.054Z,2280.00
2023-05-16T07:39:10.074Z,2277.00
2023-05-16T07:40:10.030Z,2266.00
2023-05-16T07:41:10.025Z,2260.00
2023-05-16T07:42:10.025Z,2284.00
2023-05-16T07:43:09.982Z,2283.00
2023-05-16T07:44:10.032Z,2280.00
2023-05-16T07:45:09.979Z,2289.00
2023-05-16T07:46:10.082Z,2280.00
2023-05-16T07:47:10.113Z,2356.00
2023-05-16T07:48:10.267Z,2359.00
2023-05-16T07:49:10.207Z,2259.00
2023-05-16T07:50:10.194Z,2237.00
2023-05-16T07:51:10.675Z,2143.00
2023-05-16T07:52:10.259Z,2050.00
2023-05-16T07:53:10.267Z,2110.00
2023-05-16T07:54:10.308Z,2085.00
2023-05-16T07:55:10.318Z,2064.00
2023-05-16T07:56:10.371Z,2075.00
2023-05-16T07:57:10.356Z,2061.00
2023-05-16T07:58:10.394Z,2067.00
2023-05-16T07:59:10.479Z,2065.00
2023-05-16T08:00:10.473Z,2058.00
2023-05-16T08:01:10.684Z,2037.00
2023-05-16T08:02:10.499Z,2054.00
2023-05-16T08:03:10.584Z,2040.00
2023-05-16T08:04:10.458Z,2025.00
2023-05-16T08:05:10.512Z,2008.00
2023-05-16T08:06:10.790Z,2006.00
2023-05-16T08:07:10.464Z,1983.00
2023-05-16T08:08:10.457Z,1979.00
2023-05-16T08:09:10.439Z,1953.00
2023-05-16T08:10:13.128Z,1946.00
2023-05-16T08:11:10.662Z,1961.00
2023-05-16T08:12:10.467Z,1968.00
2023-05-16T08:13:10.449Z,1935.00
2023-05-16T08:14:10.452Z,1916.00
2023-05-16T08:15:10.437Z,1913.00
2023-05-16T08:16:10.454Z,1905.00
2023-05-16T08:17:10.429Z,1889.00
2023-05-16T08:18:10.479Z,1876.00
2023-05-16T08:19:10.443Z,1897.00
2023-05-16T08:20:10.402Z,1898.00
2023-05-16T08:21:10.361Z,1906.00
2023-05-16T08:22:10.383Z,1893.00
2023-05-16T08:23:10.414Z,1880.00
2023-05-16T08:24:11.236Z,1880.00
2023-05-16T08:25:10.350Z,1874.00
2023-05-16T08:26:10.727Z,1865.00
2023-05-16T08:27:10.340Z,1861.00
2023-05-16T08:28:10.335Z,1843.00
2023-05-16T08:29:10.316Z,1845.00
2023-05-16T08:30:10.328Z,1824.00
2023-05-16T08:31:10.403Z,1894.00
2023-05-16T08:32:10.307Z,1831.00
2023-05-16T08:33:10.435Z,1808.00
2023-05-16T08:34:10.283Z,1797.00
2023-05-16T08:35:10.330Z,1780.00
2023-05-16T08:36:10.297Z,1774.00
2023-05-16T08:37:10.296Z,1767.00
2023-05-16T08:38:10.265Z,1757.00
2023-05-16T08:39:10.236Z,1749.00
2023-05-16T08:40:10.259Z,1752.00
2023-05-16T08:41:10.762Z,1740.00
2023-05-16T08:42:10.242Z,1735.00
2023-05-16T08:43:10.270Z,1756.00
2023-05-16T08:44:10.242Z,1737.00
2023-05-16T08:45:10.235Z,1728.00
2023-05-16T08:46:10.240Z,1734.00
2023-05-16T08:47:10.381Z,1743.00
2023-05-16T08:48:10.655Z,1787.00
2023-05-16T08:49:10.225Z,1760.00
2023-05-16T08:50:10.174Z,1781.00
2023-05-16T08:51:10.212Z,1800.00
2023-05-16T08:52:10.180Z,1794.00
2023-05-16T08:53:10.227Z,1757.00
2023-05-16T08:54:10.217Z,1787.00
2023-05-16T08:55:25.105Z,1796.00
2023-05-16T08:56:11.170Z,1796.00
2023-05-16T08:57:10.146Z,1795.00
2023-05-16T08:58:10.132Z,1275.00
2023-05-16T08:59:10.155Z,1160.00
2023-05-16T09:00:10.152Z,1189.00
2023-05-16T09:01:10.289Z,1211.00
2023-05-16T09:02:10.129Z,1304.00
2023-05-16T09:03:10.133Z,1392.00
2023-05-16T09:04:10.191Z,1499.00
2023-05-16T09:05:10.097Z,1572.00
2023-05-16T09:06:10.096Z,1520.00
2023-05-16T09:07:10.073Z,1554.00
2023-05-16T09:08:10.077Z,1552.00
2023-05-16T09:09:10.058Z,1595.00
2023-05-16T09:10:10.046Z,1632.00
2023-05-16T09:11:10.228Z,1656.00
2023-05-16T09:12:10.073Z,1666.00
2023-05-16T09:13:10.037Z,1699.00
2023-05-16T09:14:10.031Z,1718.00
2023-05-16T09:15:10.117Z,1719.00
2023-05-16T09:16:10.236Z,1741.00
2023-05-16T09:17:12.279Z,1777.00
2023-05-16T09:18:10.346Z,1765.00
2023-05-16T09:19:10.605Z,1751.00
2023-05-16T09:20:10.393Z,1751.00
2023-05-16T09:21:10.436Z,1759.00
2023-05-16T09:22:10.490Z,1785.00
2023-05-16T09:23:10.510Z,1808.00
2023-05-16T09:24:10.598Z,1821.00
2023-05-16T09:25:21.750Z,1820.00
2023-05-16T09:26:11.703Z,1820.00
2023-05-16T09:27:10.674Z,1793.00
2023-05-16T09:28:10.624Z,1809.00
2023-05-16T09:29:10.644Z,1818.00
2023-05-16T09:30:10.657Z,1781.00
2023-05-16T09:31:10.750Z,1779.00
2023-05-16T09:32:10.618Z,1769.00
2023-05-16T09:33:10.647Z,1774.00
2023-05-16T09:34:10.620Z,1804.00
2023-05-16T09:35:10.602Z,1832.00
2023-05-16T09:36:10.743Z,1839.00
2023-05-16T09:37:10.698Z,1846.00
2023-05-16T09:38:10.754Z,1840.00
2023-05-16T09:39:10.764Z,1843.00
2023-05-16T09:40:10.844Z,1826.00
2023-05-16T09:41:11.227Z,1806.00
2023-05-16T09:42:10.914Z,1784.00
2023-05-16T09:43:10.963Z,1786.00
2023-05-16T09:44:10.968Z,1790.00
2023-05-16T09:45:11.015Z,1882.00
2023-05-16T09:46:11.290Z,1755.00
2023-05-16T09:47:11.125Z,1675.00
2023-05-16T09:48:11.292Z,1573.00
2023-05-16T09:49:11.357Z,1533.00
2023-05-16T09:50:11.391Z,1485.00
2023-05-16T09:51:11.733Z,1587.00
2023-05-16T09:52:11.483Z,1454.00
2023-05-16T09:53:11.476Z,1524.00
2023-05-16T09:54:11.506Z,1509.00
2023-05-16T09:55:11.507Z,1478.00
2023-05-16T09:56:11.528Z,1414.00
2023-05-16T09:57:11.519Z,1374.00
2023-05-16T09:58:11.527Z,1323.00
2023-05-16T09:59:11.514Z,1302.00
2023-05-16T10:00:11.520Z,1239.00
2023-05-16T10:01:11.724Z,1206.00
2023-05-16T10:02:11.581Z,1187.00
2023-05-16T10:03:11.879Z,1109.00
2023-05-16T10:04:11.680Z,1103.00
2023-05-16T10:05:11.615Z,1063.00
2023-05-16T10:06:11.688Z,1032.00
2023-05-16T10:07:11.759Z,1009.00
2023-05-16T10:08:11.713Z,956.00
2023-05-16T10:09:11.744Z,950.00
2023-05-16T10:10:11.769Z,951.00
2023-05-16T10:11:11.873Z,912.00
2023-05-16T10:12:11.872Z,857.00
2023-05-16T10:13:11.893Z,815.00
2023-05-16T10:14:12.837Z,817.00
2023-05-16T10:15:11.836Z,822.00
2023-05-16T10:16:12.436Z,822.00
2023-05-16T10:17:11.833Z,791.00
2023-05-16T10:18:11.949Z,791.00
2023-05-16T10:19:12.042Z,813.00
2023-05-16T10:20:11.839Z,780.00
2023-05-16T10:21:12.230Z,774.00
2023-05-16T10:22:11.805Z,710.00
2023-05-16T10:23:11.818Z,711.00
2023-05-16T10:24:11.843Z,698.00
2023-05-16T10:25:11.817Z,726.00
2023-05-16T10:26:12.289Z,697.00
2023-05-16T10:27:11.836Z,673.00
2023-05-16T10:28:11.889Z,677.00
2023-05-16T10:29:11.945Z,686.00
2023-05-16T10:30:11.972Z,675.00
2023-05-16T10:31:12.013Z,654.00
2023-05-16T10:32:12.224Z,650.00
2023-05-16T10:33:12.156Z,659.00
2023-05-16T10:34:12.185Z,648.00
2023-05-16T10:35:12.217Z,647.00
2023-05-16T10:36:12.261Z,660.00
2023-05-16T10:37:12.262Z,652.00
2023-05-16T10:38:12.321Z,647.00
2023-05-16T10:39:12.345Z,634.00
2023-05-16T10:40:12.376Z,640.00
2023-05-16T10:41:12.748Z,646.00
2023-05-16T10:42:12.460Z,635.00
2023-05-16T10:43:12.493Z,627.00
2023-05-16T10:44:12.532Z,629.00
2023-05-16T10:45:12.579Z,625.00
2023-05-16T10:46:12.816Z,616.00
2023-05-16T10:47:12.667Z,615.00
2023-05-16T10:48:12.738Z,617.00
2023-05-16T10:49:12.744Z,619.00
2023-05-16T10:50:12.746Z,614.00
2023-05-16T10:51:12.807Z,605.00
2023-05-16T10:52:12.862Z,600.00
2023-05-16T10:53:12.874Z,606.00
2023-05-16T10:54:12.951Z,610.00
2023-05-16T10:55:12.946Z,608.00
2023-05-16T10:56:13.268Z,612.00
2023-05-16T10:57:13.053Z,613.00
2023-05-16T10:58:13.117Z,609.00
2023-05-16T10:59:13.132Z,613.00
2023-05-16T11:00:13.185Z,611.00
2023-05-16T11:01:13.305Z,614.00
2023-05-16T11:02:13.347Z,619.00
2023-05-16T11:03:13.429Z,614.00
2023-05-16T11:04:13.373Z,613.00
2023-05-16T11:05:13.413Z,607.00
2023-05-16T11:06:13.436Z,606.00
2023-05-16T11:07:13.711Z,613.00
2023-05-16T11:08:13.621Z,614.00
2023-05-16T11:09:13.648Z,613.00
2023-05-16T11:10:13.704Z,605.00
2023-05-16T11:11:13.726Z,615.00
2023-05-16T11:12:13.755Z,615.00
2023-05-16T11:13:13.846Z,620.00
2023-05-16T11:14:13.887Z,614.00
2023-05-16T11:15:13.916Z,618.00
2023-05-16T11:16:14.018Z,618.00
2023-05-16T11:17:14.261Z,618.00
2023-05-16T11:18:14.167Z,620.00
2023-05-16T11:19:14.250Z,620.00
2023-05-16T11:20:14.237Z,616.00
2023-05-16T11:21:14.239Z,617.00
2023-05-16T11:22:14.309Z,622.00
2023-05-16T11:23:14.388Z,615.00
2023-05-16T11:24:14.421Z,610.00
2023-05-16T11:25:14.468Z,615.00
2023-05-16T11:26:14.531Z,613.00
2023-05-16T11:27:14.570Z,615.00
2023-05-16T11:28:14.682Z,610.00
2023-05-16T11:29:14.691Z,613.00
2023-05-16T11:30:14.850Z,610.00
2023-05-16T11:31:15.342Z,610.00
2023-05-16T11:32:14.892Z,606.00
2023-05-16T11:33:14.953Z,618.00
2023-05-16T11:34:14.958Z,614.00
2023-05-16T11:35:15.372Z,613.00
2023-05-16T11:36:16.622Z,609.00
2023-05-16T11:37:15.144Z,610.00
2023-05-16T11:38:15.164Z,615.00
2023-05-16T11:39:15.222Z,621.00
2023-05-16T11:40:15.288Z,615.00
2023-05-16T11:41:15.321Z,621.00
2023-05-16T11:42:15.373Z,644.00
2023-05-16T11:43:15.412Z,660.00
2023-05-16T11:44:15.483Z,694.00
2023-05-16T11:45:15.534Z,674.00
2023-05-16T11:46:15.732Z,657.00
2023-05-16T11:47:15.686Z,649.00
2023-05-16T11:48:21.954Z,640.00
2023-05-16T11:49:16.684Z,640.00
2023-05-16T11:50:15.741Z,628.00
2023-05-16T11:51:15.886Z,623.00
2023-05-16T11:52:15.662Z,622.00
2023-05-16T11:53:15.680Z,621.00
2023-05-16T11:54:15.786Z,619.00
2023-05-16T11:55:28.139Z,611.00
2023-05-16T11:56:16.790Z,611.00
2023-05-16T11:57:15.724Z,612.00
2023-05-16T11:58:15.694Z,611.00
2023-05-16T11:59:15.721Z,607.00
2023-05-16T12:00:15.685Z,606.00
2023-05-16T12:01:15.699Z,596.00
2023-05-16T12:02:15.676Z,596.00
2023-05-16T12:03:16.342Z,593.00
2023-05-16T12:04:15.842Z,595.00
2023-05-16T12:05:15.795Z,589.00
2023-05-16T12:06:16.267Z,582.00
2023-05-16T12:07:15.860Z,588.00
2023-05-16T12:08:15.894Z,591.00
2023-05-16T12:09:18.378Z,592.00
2023-05-16T12:10:15.936Z,588.00